createdAt,value
2022-11-16T06:04:59.729Z,91.38
2022-11-16T06:06:01.648Z,92.00
2022-11-16T06:07:01.510Z,92.10
2022-11-16T06:08:00.559Z,92.10
2022-11-16T06:09:00.813Z,91.18
2022-11-16T06:10:00.425Z,93.13
2022-11-16T06:11:00.459Z,93.59
2022-11-16T06:12:00.394Z,93.48
2022-11-16T06:14:23.058Z,93.27
2022-11-16T06:14:24.608Z,92.97
2022-11-16T06:15:24.589Z,91.94
2022-11-16T06:16:25.387Z,91.22
2022-11-16T06:17:24.609Z,91.80
2022-11-16T06:18:24.545Z,92.00
2022-11-16T06:19:29.603Z,91.18
2022-11-16T06:20:26.514Z,92.10
2022-11-16T06:21:24.600Z,92.21
2022-11-16T06:22:24.540Z,92.78
2022-11-16T06:23:24.508Z,93.54
2022-11-16T06:24:24.549Z,92.93
2022-11-16T06:25:24.534Z,92.51
2022-11-16T06:26:25.797Z,93.33
2022-11-16T06:27:24.505Z,93.48
2022-11-16T06:28:24.537Z,93.48
2022-11-16T06:29:24.550Z,93.27
2022-11-16T06:30:24.519Z,93.38
2022-11-16T06:31:24.524Z,93.48
2022-11-16T06:32:24.528Z,92.25
2022-11-16T06:33:24.459Z,91.49
2022-11-16T06:34:24.468Z,92.00
2022-11-16T06:35:24.486Z,91.38
2022-11-16T06:36:24.482Z,91.18
2022-11-16T06:37:24.491Z,90.87
2022-11-16T06:38:24.492Z,91.18
2022-11-16T06:39:24.492Z,91.69
2022-11-16T06:40:24.446Z,90.16
2022-11-16T06:41:24.450Z,91.14
2022-11-16T06:42:25.635Z,90.77
2022-11-16T06:43:24.424Z,91.03
2022-11-16T06:44:24.389Z,91.59
2022-11-16T06:45:24.353Z,91.14
2022-11-16T06:46:24.443Z,91.03
2022-11-16T06:47:24.501Z,91.14
2022-11-16T06:48:24.581Z,91.14
2022-11-16T06:49:24.373Z,91.08
2022-11-16T06:50:24.331Z,90.22
2022-11-16T06:51:24.411Z,91.28
2022-11-16T06:52:24.380Z,90.16
2022-11-16T06:53:28.987Z,91.65
2022-11-16T06:54:26.326Z,90.62
2022-11-16T06:55:24.323Z,91.38
2022-11-16T06:56:24.362Z,90.87
2022-11-16T06:57:24.419Z,90.97
2022-11-16T06:58:24.767Z,91.08
2022-11-16T06:59:24.328Z,91.90
2022-11-16T07:00:24.274Z,92.10
2022-11-16T07:01:24.369Z,92.35
2022-11-16T07:02:24.287Z,93.68
2022-11-16T07:03:24.258Z,93.59
2022-11-16T07:04:25.331Z,93.48
2022-11-16T07:05:24.289Z,93.38
2022-11-16T07:06:24.251Z,93.68
2022-11-16T07:07:24.285Z,92.66
2022-11-16T07:08:24.370Z,92.97
2022-11-16T07:09:24.435Z,92.97
2022-11-16T07:10:24.440Z,93.38
2022-11-16T07:11:24.253Z,93.27
2022-11-16T07:12:24.280Z,93.38
2022-11-16T07:13:24.211Z,93.59
2022-11-16T07:14:24.202Z,93.17
2022-11-16T07:15:24.234Z,93.38
2022-11-16T07:16:24.218Z,93.17
2022-11-16T07:17:24.200Z,93.38
2022-11-16T07:18:24.166Z,92.97
2022-11-16T07:19:24.238Z,93.59
2022-11-16T07:20:24.170Z,93.48
2022-11-16T07:21:24.136Z,93.48
2022-11-16T07:22:24.165Z,93.48
2022-11-16T07:23:24.112Z,93.38
2022-11-16T07:24:24.105Z,93.54
2022-11-16T07:25:24.081Z,93.38
2022-11-16T07:26:24.202Z,93.59
2022-11-16T07:27:24.268Z,93.07
2022-11-16T07:28:24.188Z,93.38
2022-11-16T07:29:24.175Z,93.17
2022-11-16T07:30:24.071Z,92.31
2022-11-16T07:31:24.093Z,92.31
2022-11-16T07:32:24.064Z,93.33
2022-11-16T07:33:24.067Z,93.44
2022-11-16T07:34:24.075Z,92.00
2022-11-16T07:35:24.182Z,91.90
2022-11-16T07:36:24.139Z,93.02
2022-11-16T07:37:24.047Z,93.33
2022-11-16T07:38:24.028Z,93.33
2022-11-16T07:39:24.029Z,93.23
2022-11-16T07:40:24.047Z,93.64
2022-11-16T07:41:24.064Z,93.59
2022-11-16T07:42:24.010Z,92.97
2022-11-16T07:43:24.010Z,93.54
2022-11-16T07:44:23.968Z,92.72
2022-11-16T07:45:23.984Z,93.13
2022-11-16T07:46:49.510Z,93.44
2022-11-16T07:47:26.094Z,93.23
2022-11-16T07:48:23.977Z,93.13
2022-11-16T07:49:23.918Z,92.10
2022-11-16T07:50:24.011Z,92.61
2022-11-16T07:51:23.919Z,92.00
2022-11-16T07:52:24.076Z,92.10
2022-11-16T07:53:23.944Z,92.00
2022-11-16T07:54:23.964Z,92.10
2022-11-16T07:55:23.894Z,91.28
2022-11-16T07:56:23.939Z,93.13
2022-11-16T07:57:23.880Z,91.18
2022-11-16T07:58:23.863Z,92.00
2022-11-16T07:59:23.909Z,93.13
2022-11-16T08:00:23.875Z,91.80
2022-11-16T08:01:23.966Z,91.59
2022-11-16T08:02:23.916Z,92.00
2022-11-16T08:03:24.942Z,92.41
2022-11-16T08:04:24.841Z,91.49
2022-11-16T08:05:23.892Z,92.10
2022-11-16T08:06:23.959Z,93.60
2022-11-16T08:07:23.863Z,92.57
2022-11-16T08:08:23.948Z,92.06
2022-11-16T08:09:23.883Z,93.08
2022-11-16T08:10:23.963Z,90.11
2022-11-16T08:11:23.886Z,89.90
2022-11-16T08:12:23.931Z,91.44
2022-11-16T08:13:23.778Z,89.90
2022-11-16T08:14:23.771Z,91.24
2022-11-16T08:15:23.811Z,91.35
2022-11-16T08:16:23.793Z,91.44
2022-11-16T08:17:23.810Z,90.11
2022-11-16T08:18:23.755Z,90.69
2022-11-16T08:20:47.867Z,89.56
2022-11-16T08:20:49.410Z,92.47
2022-11-16T08:21:49.459Z,91.96
2022-11-16T08:22:49.434Z,92.98
2022-11-16T08:23:53.821Z,93.08
2022-11-16T08:24:50.460Z,92.16
2022-11-16T08:25:49.398Z,92.78
2022-11-16T08:26:49.530Z,92.98
2022-11-16T08:27:49.349Z,91.96
2022-11-16T08:28:49.409Z,92.98
2022-11-16T08:29:49.376Z,93.29
2022-11-16T08:30:53.576Z,93.39
2022-11-16T08:31:50.402Z,92.68
2022-11-16T08:32:49.325Z,93.08
2022-11-16T08:33:49.357Z,91.75
2022-11-16T08:34:49.321Z,93.49
2022-11-16T08:35:49.356Z,90.93
2022-11-16T08:36:49.312Z,92.88
2022-11-16T08:37:49.342Z,93.29
2022-11-16T08:38:49.278Z,93.90
2022-11-16T08:39:49.332Z,94.01
2022-11-16T08:40:49.310Z,94.21
2022-11-16T08:41:49.282Z,94.21
2022-11-16T08:42:49.285Z,94.26
2022-11-16T08:43:49.293Z,94.46
2022-11-16T08:44:49.425Z,94.93
2022-11-16T08:45:49.268Z,94.56
2022-11-16T08:46:49.258Z,94.26
2022-11-16T08:47:49.262Z,94.56
2022-11-16T08:48:49.294Z,94.98
2022-11-16T08:49:49.815Z,94.05
2022-11-16T08:51:15.807Z,94.77
2022-11-16T08:51:51.223Z,94.46
2022-11-16T08:52:49.247Z,94.26
2022-11-16T08:53:49.381Z,94.56
2022-11-16T08:54:49.215Z,94.73
2022-11-16T08:55:49.162Z,94.05
2022-11-16T08:56:49.145Z,94.77
2022-11-16T08:57:49.214Z,94.77
2022-11-16T08:58:53.835Z,95.49
2022-11-16T08:59:51.135Z,94.67
2022-11-16T09:00:49.148Z,95.34
2022-11-16T09:01:49.203Z,94.77
2022-11-16T09:02:49.141Z,94.26
2022-11-16T09:03:49.105Z,94.87
2022-11-16T09:04:49.126Z,94.56
2022-11-16T09:05:49.097Z,95.07
2022-11-16T09:06:49.195Z,95.07
2022-11-16T09:07:49.123Z,94.52
2022-11-16T09:08:49.040Z,94.73
2022-11-16T09:09:49.146Z,94.83
2022-11-16T09:10:49.070Z,94.83
2022-11-16T09:11:49.111Z,94.62
2022-11-16T09:12:49.097Z,94.01
2022-11-16T09:13:49.070Z,95.03
2022-11-16T09:14:49.034Z,94.62
2022-11-16T09:15:49.029Z,94.37
2022-11-16T09:16:49.033Z,94.32
2022-11-16T09:17:48.995Z,94.89
2022-11-16T09:18:48.982Z,94.48
2022-11-16T09:19:49.006Z,94.78
2022-11-16T09:20:49.012Z,94.37
2022-11-16T09:21:49.105Z,94.58
2022-11-16T09:22:48.944Z,94.27
2022-11-16T09:23:48.961Z,94.89
2022-11-16T09:24:49.001Z,94.37
2022-11-16T09:25:49.008Z,94.89
2022-11-16T09:26:48.953Z,94.17
2022-11-16T09:27:49.033Z,94.99
2022-11-16T09:28:48.955Z,94.07
2022-11-16T09:29:49.007Z,94.17
2022-11-16T09:30:48.895Z,94.68
2022-11-16T09:31:48.961Z,94.58
2022-11-16T09:32:48.913Z,94.99
2022-11-16T09:33:48.908Z,94.89
2022-11-16T09:34:48.926Z,94.33
2022-11-16T09:35:48.917Z,94.89
2022-11-16T09:36:49.208Z,93.92
2022-11-16T09:37:48.881Z,93.62
2022-11-16T09:39:50.859Z,94.23
2022-11-16T09:40:48.881Z,93.86
2022-11-16T09:41:48.837Z,93.71
2022-11-16T09:42:48.961Z,94.07
2022-11-16T09:43:48.893Z,94.33
2022-11-16T09:44:48.804Z,94.02
2022-11-16T09:45:48.825Z,94.33
2022-11-16T09:46:49.028Z,94.95
2022-11-16T09:47:48.858Z,94.23
2022-11-16T09:48:48.832Z,94.54
2022-11-16T09:49:48.779Z,94.64
2022-11-16T09:50:48.773Z,94.33
2022-11-16T09:51:48.775Z,93.77
2022-11-16T09:52:48.824Z,93.62
2022-11-16T09:53:48.770Z,94.39
2022-11-16T09:54:48.797Z,93.57
2022-11-16T09:55:48.830Z,93.67
2022-11-16T09:56:48.778Z,93.88
2022-11-16T09:57:48.773Z,94.08
2022-11-16T09:58:48.720Z,93.57
2022-11-16T09:59:48.777Z,93.77
2022-11-16T10:00:49.811Z,94.08
2022-11-16T10:01:48.727Z,93.77
2022-11-16T10:02:48.735Z,92.75
2022-11-16T10:03:48.705Z,93.63
2022-11-16T10:04:52.485Z,93.63
2022-11-16T10:05:50.697Z,93.52
2022-11-16T10:06:48.735Z,93.93
2022-11-16T10:07:48.669Z,93.73
2022-11-16T10:08:48.637Z,93.63
2022-11-16T10:09:48.630Z,93.32
2022-11-16T10:10:48.781Z,93.12
2022-11-16T10:11:48.640Z,93.01
2022-11-16T10:12:48.665Z,94.04
2022-11-16T10:13:48.630Z,93.63
2022-11-16T10:14:48.669Z,93.07
2022-11-16T10:15:48.675Z,93.28
2022-11-16T10:16:48.602Z,93.18
2022-11-16T10:17:48.611Z,93.48
2022-11-16T10:18:48.615Z,92.93
2022-11-16T10:19:48.630Z,93.65
2022-11-16T10:20:48.598Z,92.21
2022-11-16T10:21:48.570Z,93.03
2022-11-16T10:22:48.548Z,90.58
2022-11-16T10:23:48.557Z,90.58
2022-11-16T10:24:48.538Z,90.88
2022-11-16T10:25:48.555Z,91.80
2022-11-16T10:26:48.623Z,93.13
2022-11-16T10:27:48.565Z,92.62
2022-11-16T10:28:48.527Z,91.70
2022-11-16T10:29:48.500Z,91.80
2022-11-16T10:30:48.546Z,91.09
2022-11-16T10:31:48.571Z,91.70
2022-11-16T10:32:48.513Z,92.21
2022-11-16T10:33:48.478Z,91.19
2022-11-16T10:34:48.519Z,90.06
2022-11-16T10:35:48.477Z,90.78
2022-11-16T10:36:48.482Z,92.68
2022-11-16T10:37:48.598Z,91.56
2022-11-16T10:38:48.422Z,90.37
2022-11-16T10:39:48.457Z,89.11
2022-11-16T10:40:48.450Z,89.65
2022-11-16T10:41:48.457Z,89.25
2022-11-16T10:42:48.461Z,91.19
2022-11-16T10:43:48.477Z,89.11
2022-11-16T10:44:48.454Z,89.72
2022-11-16T10:45:48.409Z,89.41
2022-11-16T10:46:48.375Z,89.98
2022-11-16T10:47:48.426Z,89.58
2022-11-16T10:48:48.398Z,88.35
2022-11-16T10:49:48.373Z,87.59
2022-11-16T10:50:48.370Z,88.92
2022-11-16T10:51:48.341Z,88.31
2022-11-16T10:52:48.378Z,87.73
2022-11-16T10:53:48.360Z,88.20
2022-11-16T10:54:48.348Z,88.31
2022-11-16T10:55:48.315Z,87.02
2022-11-16T10:56:48.318Z,88.24
2022-11-16T10:57:48.370Z,87.73
2022-11-16T10:58:48.294Z,87.94
2022-11-16T10:59:48.334Z,88.24
2022-11-16T11:00:48.692Z,87.53
2022-11-16T11:01:48.244Z,87.88
2022-11-16T11:02:48.271Z,87.94
2022-11-16T11:03:48.276Z,87.16
2022-11-16T11:04:48.310Z,88.39
2022-11-16T11:05:48.274Z,88.39
2022-11-16T11:06:48.344Z,87.77
2022-11-16T11:07:48.346Z,85.63
2022-11-16T11:08:48.249Z,85.02
2022-11-16T11:09:48.278Z,85.36
2022-11-16T11:10:48.301Z,87.67
2022-11-16T11:11:48.184Z,87.77
2022-11-16T11:12:49.452Z,87.67
2022-11-16T11:13:48.271Z,86.65
2022-11-16T11:14:48.174Z,89.26
2022-11-16T11:15:48.250Z,88.31
2022-11-16T11:16:48.422Z,86.53
2022-11-16T11:17:48.204Z,85.06
2022-11-16T11:18:48.217Z,85.22
2022-11-16T11:19:48.220Z,84.27
2022-11-16T11:20:48.204Z,81.17
2022-11-16T11:21:48.142Z,80.02
2022-11-16T11:22:48.289Z,81.60
2022-11-16T11:23:48.220Z,80.62
2022-11-16T11:24:48.298Z,79.16
2022-11-16T11:25:48.149Z,75.23
2022-11-16T11:26:48.151Z,74.65
2022-11-16T11:27:48.532Z,75.20
2022-11-16T11:28:48.108Z,75.95
2022-11-16T11:29:48.077Z,77.98
2022-11-16T11:30:48.102Z,78.12
2022-11-16T11:31:48.109Z,80.26
2022-11-16T11:32:48.163Z,80.77
2022-11-16T11:33:48.102Z,81.82
2022-11-16T11:34:48.071Z,80.70
2022-11-16T11:35:48.131Z,80.33
2022-11-16T11:36:48.074Z,81.35
2022-11-16T11:37:48.082Z,81.76
2022-11-16T11:38:48.062Z,81.25
2022-11-16T11:39:48.076Z,77.62
2022-11-16T11:40:48.099Z,80.57
2022-11-16T11:41:47.984Z,81.70
2022-11-16T11:42:47.999Z,79.04
2022-11-16T11:43:48.031Z,80.57
2022-11-16T11:44:48.908Z,80.51
2022-11-16T11:45:48.003Z,82.61
2022-11-16T11:47:35.206Z,82.21
2022-11-16T11:47:57.914Z,79.62
2022-11-16T11:48:49.978Z,78.09
2022-11-16T11:49:47.992Z,78.60
2022-11-16T11:50:47.990Z,78.36
2022-11-16T11:51:48.021Z,77.14
2022-11-16T11:52:47.958Z,77.24
2022-11-16T11:53:47.933Z,78.77
2022-11-16T11:54:47.882Z,77.14
2022-11-16T11:55:47.892Z,76.79
2022-11-16T11:56:47.939Z,75.06
2022-11-16T11:57:47.873Z,75.95
2022-11-16T11:58:47.908Z,72.69
2022-11-16T11:59:47.867Z,72.99
2022-11-16T12:00:47.896Z,72.25
2022-11-16T12:01:47.905Z,71.53
2022-11-16T12:02:48.137Z,70.21
2022-11-16T12:03:47.905Z,70.51
2022-11-16T12:04:47.909Z,68.75
2022-11-16T12:05:47.808Z,68.75
2022-11-16T12:06:47.941Z,70.35
2022-11-16T12:07:47.887Z,66.25
2022-11-16T12:08:47.774Z,66.66
2022-11-16T12:09:47.802Z,68.18
2022-11-16T12:10:47.835Z,67.06
2022-11-16T12:11:47.758Z,67.16
2022-11-16T12:12:47.745Z,67.19
2022-11-16T12:13:47.764Z,67.57
2022-11-16T12:14:47.785Z,66.69
2022-11-16T12:15:47.757Z,67.02
2022-11-16T12:16:47.744Z,67.43
2022-11-16T12:17:47.755Z,65.91
2022-11-16T12:18:47.727Z,68.65
2022-11-16T12:19:47.726Z,68.24
2022-11-16T12:20:47.727Z,68.32
2022-11-16T12:21:47.711Z,68.32
2022-11-16T12:22:47.758Z,67.97
2022-11-16T12:23:47.755Z,66.49
2022-11-16T12:24:47.688Z,66.99
2022-11-16T12:25:47.698Z,67.43
2022-11-16T12:26:47.675Z,68.79
2022-11-16T12:27:47.699Z,66.76
2022-11-16T12:28:51.224Z,66.86
2022-11-16T12:29:48.649Z,67.36
2022-11-16T12:30:47.640Z,66.63
2022-11-16T12:31:47.665Z,66.96
2022-11-16T12:32:47.639Z,66.15
2022-11-16T12:33:47.608Z,65.97
2022-11-16T12:34:47.623Z,66.38
2022-11-16T12:35:47.606Z,67.74
2022-11-16T12:36:47.599Z,66.82
2022-11-16T12:37:48.314Z,67.33
2022-11-16T12:38:47.631Z,67.22
2022-11-16T12:39:47.574Z,65.80
2022-11-16T12:40:47.579Z,68.48
2022-11-16T12:41:47.599Z,68.58
2022-11-16T12:42:47.576Z,66.99
2022-11-16T12:43:47.534Z,68.62
2022-11-16T12:44:47.551Z,69.93
2022-11-16T12:45:47.556Z,69.76
2022-11-16T12:46:47.548Z,69.15
2022-11-16T12:47:47.574Z,70.24
2022-11-16T12:48:47.572Z,69.84
2022-11-16T12:49:47.553Z,68.34
2022-11-16T12:50:47.486Z,69.26
2022-11-16T12:51:47.554Z,69.36
2022-11-16T12:52:47.500Z,68.95
2022-11-16T12:53:47.476Z,69.26
2022-11-16T12:55:04.340Z,69.87
2022-11-16T12:55:49.562Z,68.85
2022-11-16T12:56:49.066Z,70.61
2022-11-16T12:57:48.456Z,71.33
2022-11-16T12:58:47.486Z,71.84
2022-11-16T12:59:47.445Z,72.45
2022-11-16T13:00:47.495Z,71.94
2022-11-16T13:01:47.438Z,71.94
2022-11-16T13:02:47.424Z,72.38
2022-11-16T13:03:47.423Z,72.48
2022-11-16T13:04:47.447Z,73.30
2022-11-16T13:05:47.376Z,73.10
2022-11-16T13:06:47.396Z,73.74
2022-11-16T13:07:47.496Z,74.66
2022-11-16T13:08:47.404Z,74.21
2022-11-16T13:09:47.364Z,75.16
2022-11-16T13:10:47.418Z,75.57
2022-11-16T13:11:47.425Z,73.54
2022-11-16T13:12:47.366Z,75.20
2022-11-16T13:13:52.934Z,75.82
2022-11-16T13:14:49.333Z,74.79
2022-11-16T13:15:47.370Z,74.69
2022-11-16T13:16:47.384Z,76.12
2022-11-16T13:17:47.327Z,75.41
2022-11-16T13:18:47.297Z,75.71
2022-11-16T13:19:47.326Z,76.16
2022-11-16T13:20:47.266Z,75.54
2022-11-16T13:21:47.274Z,74.93
2022-11-16T13:22:47.337Z,76.06
2022-11-16T13:23:47.263Z,75.44
2022-11-16T13:24:47.245Z,76.56
2022-11-16T13:25:47.290Z,75.44
2022-11-16T13:26:47.236Z,76.40
2022-11-16T13:27:47.236Z,75.99
2022-11-16T13:28:47.297Z,75.68
2022-11-16T13:29:47.204Z,74.15
2022-11-16T13:30:47.228Z,75.78
2022-11-16T13:31:47.241Z,76.09
2022-11-16T13:32:47.205Z,75.27
2022-11-16T13:33:50.649Z,75.78
2022-11-16T13:34:48.241Z,76.29
2022-11-16T13:35:47.183Z,77.11
2022-11-16T13:36:47.174Z,75.58
2022-11-16T13:37:47.178Z,76.81
2022-11-16T13:38:47.306Z,75.00
2022-11-16T13:39:47.199Z,75.82
2022-11-16T13:40:47.165Z,76.67
2022-11-16T13:41:47.201Z,77.56
2022-11-16T13:42:47.153Z,77.45
2022-11-16T13:43:47.245Z,76.84
2022-11-16T13:44:51.423Z,78.27
2022-11-16T13:45:48.114Z,77.66
2022-11-16T13:46:56.128Z,77.76
2022-11-16T13:47:49.172Z,80.05
2022-11-16T13:48:47.108Z,80.35
2022-11-16T13:49:47.065Z,80.93
2022-11-16T13:50:47.059Z,81.79
2022-11-16T13:51:47.151Z,79.70
2022-11-16T13:53:32.097Z,79.33
2022-11-16T13:54:43.308Z,79.39
2022-11-16T13:54:49.669Z,80.32
2022-11-16T13:55:47.100Z,80.73
2022-11-16T13:56:47.047Z,79.13
2022-11-16T13:57:47.088Z,76.88
2022-11-16T13:58:47.068Z,78.72
2022-11-16T13:59:47.007Z,79.29
2022-11-16T14:00:47.134Z,78.17
2022-11-16T14:01:46.984Z,79.50
2022-11-16T14:02:46.998Z,80.05
2022-11-16T14:03:46.993Z,80.25
2022-11-16T14:04:46.988Z,80.01
2022-11-16T14:05:46.974Z,80.76
2022-11-16T14:06:47.012Z,80.29
2022-11-16T14:07:46.972Z,80.39
2022-11-16T14:08:47.060Z,79.57
2022-11-16T14:09:47.007Z,80.60
2022-11-16T14:10:46.943Z,80.74
2022-11-16T14:11:46.948Z,80.49
2022-11-16T14:12:46.948Z,80.22
2022-11-16T14:13:46.884Z,79.41
2022-11-16T14:14:46.899Z,81.18
2022-11-16T14:15:46.916Z,81.96
2022-11-16T14:16:46.899Z,81.96
2022-11-16T14:17:46.881Z,82.17
2022-11-16T14:18:46.907Z,82.71
2022-11-16T14:19:46.840Z,82.82
2022-11-16T14:20:46.906Z,83.09
2022-11-16T14:21:46.906Z,82.21
2022-11-16T14:22:46.851Z,81.49
2022-11-16T14:23:46.864Z,81.65
2022-11-16T14:24:46.866Z,82.17
2022-11-16T14:25:47.081Z,82.17
2022-11-16T14:26:46.823Z,80.22
2022-11-16T14:27:46.847Z,81.56
2022-11-16T14:28:46.849Z,81.76
2022-11-16T14:29:46.840Z,83.60
2022-11-16T14:30:46.820Z,84.63
2022-11-16T14:31:46.793Z,83.13
2022-11-16T14:32:46.800Z,84.36
2022-11-16T14:33:46.795Z,84.87
2022-11-16T14:34:46.763Z,84.01
2022-11-16T14:35:46.809Z,84.42
2022-11-16T14:36:46.750Z,84.11
2022-11-16T14:37:46.733Z,83.29
2022-11-16T14:38:46.758Z,83.25
2022-11-16T14:39:46.747Z,83.56
2022-11-16T14:40:46.768Z,82.84
2022-11-16T14:41:46.739Z,81.41
2022-11-16T14:43:01.932Z,81.31
2022-11-16T14:43:48.804Z,82.13
2022-11-16T14:44:46.745Z,81.21
2022-11-16T14:45:46.749Z,81.82
2022-11-16T14:46:46.687Z,81.21
2022-11-16T14:47:46.642Z,82.23
2022-11-16T14:48:46.698Z,82.64
2022-11-16T14:49:46.674Z,83.15
2022-11-16T14:50:46.689Z,82.75
2022-11-16T14:51:46.704Z,80.80
2022-11-16T14:52:46.654Z,79.57
2022-11-16T14:53:47.368Z,79.57
2022-11-16T14:54:46.649Z,80.97
2022-11-16T14:55:46.637Z,81.99
2022-11-16T14:56:46.632Z,81.62
2022-11-16T14:57:46.610Z,80.80
2022-11-16T14:58:46.959Z,79.68
2022-11-16T14:59:46.581Z,79.30
2022-11-16T15:00:46.630Z,79.78
2022-11-16T15:01:46.609Z,79.78
2022-11-16T15:02:51.386Z,80.69
2022-11-16T15:03:48.732Z,80.60
2022-11-16T15:04:46.575Z,79.61
2022-11-16T15:05:46.602Z,80.12
2022-11-16T15:06:46.592Z,80.02
2022-11-16T15:07:46.579Z,80.63
2022-11-16T15:08:46.620Z,79.91
2022-11-16T15:09:46.571Z,80.53
2022-11-16T15:10:52.021Z,80.22
2022-11-16T15:11:48.567Z,78.79
2022-11-16T15:12:46.525Z,79.30
2022-11-16T15:13:46.593Z,79.10
2022-11-16T15:14:46.532Z,79.50
2022-11-16T15:15:46.496Z,80.26
2022-11-16T15:16:46.486Z,78.89
2022-11-16T15:17:46.507Z,79.54
2022-11-16T15:18:46.479Z,79.64
2022-11-16T15:19:46.541Z,79.96
2022-11-16T15:20:46.475Z,79.96
2022-11-16T15:21:46.456Z,80.57
2022-11-16T15:22:46.424Z,80.67
2022-11-16T15:24:02.048Z,80.77
2022-11-16T15:24:47.455Z,80.26
2022-11-16T15:25:46.430Z,80.36
2022-11-16T15:26:46.446Z,80.36
2022-11-16T15:27:46.495Z,80.63
2022-11-16T15:28:50.071Z,80.16
2022-11-16T15:29:47.410Z,79.75
2022-11-16T15:30:46.445Z,79.75
2022-11-16T15:31:46.397Z,80.36
2022-11-16T15:32:46.421Z,80.36
2022-11-16T15:33:46.466Z,80.57
2022-11-16T15:34:46.361Z,79.03
2022-11-16T15:35:46.381Z,79.64
2022-11-16T15:36:46.416Z,80.88
2022-11-16T15:37:46.338Z,80.77
2022-11-16T15:38:46.423Z,79.64
2022-11-16T15:39:46.330Z,80.88
2022-11-16T15:40:46.324Z,79.24
2022-11-16T15:41:46.372Z,80.36
2022-11-16T15:42:46.314Z,80.16
2022-11-16T15:44:09.317Z,80.16
2022-11-16T15:44:48.345Z,81.08
2022-11-16T15:45:46.310Z,81.70
2022-11-16T15:46:46.293Z,81.84
2022-11-16T15:47:46.280Z,80.71
2022-11-16T15:48:46.272Z,79.99
2022-11-16T15:49:46.277Z,81.12
2022-11-16T15:50:46.254Z,80.88
2022-11-16T15:51:46.325Z,81.49
2022-11-16T15:52:46.268Z,80.77
2022-11-16T15:53:46.284Z,80.77
2022-11-16T15:54:46.238Z,80.57
2022-11-16T15:55:46.348Z,80.88
2022-11-16T15:56:46.260Z,80.57
2022-11-16T15:57:46.746Z,81.08
2022-11-16T15:58:47.288Z,82.31
2022-11-16T15:59:46.231Z,80.26
2022-11-16T16:00:46.195Z,80.77
2022-11-16T16:01:46.258Z,80.46
2022-11-16T16:02:46.217Z,80.98
2022-11-16T16:03:46.185Z,80.26
2022-11-16T16:04:46.215Z,80.88
2022-11-16T16:05:46.182Z,80.26
2022-11-16T16:06:46.170Z,80.46
2022-11-16T16:07:46.184Z,80.77
2022-11-16T16:08:46.237Z,81.94
2022-11-16T16:09:46.153Z,82.00
2022-11-16T16:10:46.157Z,81.70
2022-11-16T16:11:46.138Z,81.49
2022-11-16T16:12:46.141Z,80.60
2022-11-16T16:13:46.151Z,80.98
2022-11-16T16:14:46.124Z,80.98
2022-11-16T16:15:46.065Z,82.00
2022-11-16T16:16:46.149Z,80.71
2022-11-16T16:17:46.142Z,81.70
2022-11-16T16:18:46.112Z,82.35
2022-11-16T16:19:46.119Z,82.92
2022-11-16T16:20:46.072Z,84.29
2022-11-16T16:21:46.057Z,84.60
2022-11-16T16:22:46.036Z,84.39
2022-11-16T16:23:46.156Z,84.44
2022-11-16T16:24:46.070Z,84.95
2022-11-16T16:25:50.281Z,85.25
2022-11-16T16:26:47.188Z,85.15
2022-11-16T16:27:46.009Z,85.15
2022-11-16T16:28:46.024Z,85.05
2022-11-16T16:29:46.030Z,85.01
2022-11-16T16:30:46.019Z,85.66
2022-11-16T16:31:46.083Z,84.80
2022-11-16T16:32:45.996Z,85.01
2022-11-16T16:33:45.994Z,84.39
2022-11-16T16:34:45.985Z,84.50
2022-11-16T16:35:45.951Z,84.19
2022-11-16T16:36:45.964Z,84.29
2022-11-16T16:37:46.011Z,84.23
2022-11-16T16:38:45.994Z,83.82
2022-11-16T16:39:45.941Z,84.44
2022-11-16T16:40:45.931Z,84.33
2022-11-16T16:41:45.923Z,84.53
2022-11-16T16:42:45.973Z,84.44
2022-11-16T16:43:46.001Z,85.09
2022-11-16T16:44:45.887Z,84.17
2022-11-16T16:45:45.895Z,84.47
2022-11-16T16:46:45.936Z,84.58
2022-11-16T16:47:45.917Z,84.58
2022-11-16T16:48:45.875Z,83.76
2022-11-16T16:49:45.887Z,83.04
2022-11-16T16:50:45.871Z,83.49
2022-11-16T16:51:45.824Z,84.17
2022-11-16T16:52:46.378Z,85.74
2022-11-16T16:53:45.893Z,85.09
2022-11-16T16:54:45.842Z,84.58
2022-11-16T16:55:45.897Z,84.99
2022-11-16T16:56:45.816Z,82.93
2022-11-16T16:57:45.834Z,82.83
2022-11-16T16:58:45.799Z,82.79
2022-11-16T16:59:45.907Z,81.81
2022-11-16T17:00:45.840Z,82.42
2022-11-16T17:01:45.770Z,83.07
2022-11-16T17:02:45.745Z,82.97
2022-11-16T17:03:45.814Z,84.45
2022-11-16T17:04:45.800Z,85.47
2022-11-16T17:05:45.736Z,85.27
2022-11-16T17:06:46.686Z,84.34
2022-11-16T17:07:46.735Z,84.90
2022-11-16T17:08:45.751Z,84.59
2022-11-16T17:09:45.732Z,84.90
2022-11-16T17:10:45.712Z,84.69
2022-11-16T17:11:45.785Z,86.13
2022-11-16T17:12:45.708Z,85.82
2022-11-16T17:13:45.739Z,86.03
2022-11-16T17:14:45.733Z,86.03
2022-11-16T17:15:45.692Z,85.89
2022-11-16T17:16:46.657Z,84.92
2022-11-16T17:17:45.683Z,83.49
2022-11-16T17:18:45.696Z,83.12
2022-11-16T17:19:45.645Z,83.42
2022-11-16T17:20:45.740Z,84.34
2022-11-16T17:21:45.691Z,83.36
2022-11-16T17:22:45.639Z,83.94
2022-11-16T17:23:45.654Z,84.28
2022-11-16T17:24:45.675Z,85.25
2022-11-16T17:25:45.633Z,85.86
2022-11-16T17:26:45.594Z,85.66
2022-11-16T17:27:45.673Z,86.11
2022-11-16T17:28:45.584Z,86.38
2022-11-16T17:29:45.611Z,87.51
2022-11-16T17:30:45.593Z,86.99
2022-11-16T17:31:45.610Z,86.58
2022-11-16T17:32:45.612Z,86.54
2022-11-16T17:33:45.544Z,85.82
2022-11-16T17:34:45.597Z,86.13
2022-11-16T17:35:45.563Z,85.99
2022-11-16T17:36:45.547Z,84.86
2022-11-16T17:37:45.518Z,84.66
2022-11-16T17:38:45.559Z,83.63
2022-11-16T17:39:45.518Z,84.66
2022-11-16T17:40:45.504Z,84.45
2022-11-16T17:41:45.506Z,84.66
2022-11-16T17:42:45.554Z,84.34
2022-11-16T17:43:45.636Z,84.66
2022-11-16T17:44:45.544Z,84.76
2022-11-16T17:45:45.504Z,84.66
2022-11-16T17:46:45.476Z,83.59
2022-11-16T17:47:45.511Z,84.55
2022-11-16T17:48:45.477Z,83.73
2022-11-16T17:49:45.461Z,84.45
2022-11-16T17:50:45.481Z,84.39
2022-11-16T17:51:45.451Z,84.49
2022-11-16T17:52:45.420Z,86.44
2022-11-16T17:53:45.416Z,84.55
2022-11-16T17:54:45.472Z,84.49
2022-11-16T17:55:45.385Z,84.94
2022-11-16T17:56:45.427Z,85.86
2022-11-16T17:57:45.404Z,85.86
2022-11-16T17:58:45.414Z,86.07
2022-11-16T17:59:45.465Z,87.04
2022-11-16T18:00:45.430Z,87.75
2022-11-16T18:01:45.448Z,86.93
2022-11-16T18:02:45.442Z,85.97
2022-11-16T18:03:45.386Z,85.76
2022-11-16T18:04:50.752Z,85.04
2022-11-16T18:05:47.396Z,85.86
2022-11-16T18:06:45.357Z,86.58
2022-11-16T18:07:45.414Z,87.92
2022-11-16T18:08:45.381Z,86.75
2022-11-16T18:09:45.327Z,85.31
2022-11-16T18:10:45.279Z,85.17
2022-11-16T18:11:45.305Z,84.39
2022-11-16T18:12:45.305Z,84.69
2022-11-16T18:13:45.311Z,83.36
2022-11-16T18:15:06.288Z,83.01
2022-11-16T18:15:47.346Z,83.36
2022-11-16T18:16:45.260Z,83.05
2022-11-16T18:17:45.278Z,84.59
2022-11-16T18:18:45.267Z,85.14
2022-11-16T18:19:45.324Z,84.63
2022-11-16T18:20:45.263Z,87.51
2022-11-16T18:21:45.240Z,85.35
2022-11-16T18:22:45.226Z,85.66
2022-11-16T18:23:45.217Z,86.00
2022-11-16T18:24:45.242Z,86.79
2022-11-16T18:25:45.199Z,84.94
2022-11-16T18:26:45.239Z,85.41
2022-11-16T18:27:45.189Z,85.00
2022-11-16T18:28:45.185Z,84.49
2022-11-16T18:29:45.220Z,85.41
2022-11-16T18:30:45.159Z,85.21
2022-11-16T18:31:45.212Z,84.49
2022-11-16T18:32:45.182Z,84.25
2022-11-16T18:33:45.174Z,83.56
2022-11-16T18:34:45.135Z,85.00
2022-11-16T18:35:45.156Z,85.00
2022-11-16T18:36:45.143Z,84.69
2022-11-16T18:37:45.129Z,84.74
2022-11-16T18:38:45.153Z,85.86
2022-11-16T18:39:45.117Z,85.66
2022-11-16T18:40:45.073Z,85.35
2022-11-16T18:41:48.591Z,86.48
2022-11-16T18:42:46.088Z,85.97
2022-11-16T18:43:45.125Z,86.17
2022-11-16T18:44:45.090Z,86.58
2022-11-16T18:45:45.102Z,85.62
2022-11-16T18:46:45.065Z,86.17
2022-11-16T18:47:45.139Z,86.07
2022-11-16T18:48:45.027Z,87.10
2022-11-16T18:49:45.071Z,86.54
2022-11-16T18:50:45.015Z,85.82
2022-11-16T18:51:45.068Z,86.85
2022-11-16T18:52:45.002Z,85.82
2022-11-16T18:53:44.994Z,85.72
2022-11-16T18:54:45.061Z,84.59
2022-11-16T18:55:44.990Z,85.00
2022-11-16T18:56:45.005Z,85.41
2022-11-16T18:57:44.971Z,85.21
2022-11-16T18:58:53.160Z,85.52